Time;durP1;ratioP1;P1;durP2;ratioP2;P2;SDS_P1;SDS_P2;PMS_P1;PMS_P2;Temp;Humidity;BMP_temperature;BMP_pressure;BME280_temperature;BME280_humidity;BME280_pressure;Samples;Min_cycle;Max_cycle;Signal;HPM_P1;HPM_P2
2021/03/21 00:02:20;;;;;;;22.90;14.38;;;;;;;7.03;52.00;99571.09;5032226;28;20026;-70
2021/03/21 00:04:48;;;;;;;10.85;5.20;;;;;;;6.94;51.84;99554.69;5033095;28;20037;-70
2021/03/21 00:07:13;;;;;;;6.38;4.47;;;;;;;6.82;51.71;99533.44;5033324;28;20030;-74
2021/03/21 00:09:39;;;;;;;4.10;3.17;;;;;;;6.90;51.72;99550.22;5032112;28;20036;-69
2021/03/21 00:12:06;;;;;;;2.67;1.77;;;;;;;6.80;52.04;99532.97;5032026;28;20038;-69
2021/03/21 00:14:31;;;;;;;2.63;1.90;;;;;;;6.83;52.01;99535.03;5033559;28;20056;-69
2021/03/21 00:16:58;;;;;;;1.88;1.77;;;;;;;6.86;51.43;99532.72;5035021;28;20108;-69
2021/03/21 00:19:25;;;;;;;7.15;2.00;;;;;;;6.81;51.81;99531.00;5035096;28;20145;-70
2021/03/21 00:21:50;;;;;;;1.75;1.55;;;;;;;6.83;52.58;99532.28;5035554;28;20037;-70
2021/03/21 00:24:16;;;;;;;5.80;4.10;;;;;;;6.64;51.98;99493.41;5035573;28;20040;-70
2021/03/21 00:26:42;;;;;;;2.28;1.80;;;;;;;6.87;51.70;99528.78;5035848;28;20108;-69
2021/03/21 00:29:07;;;;;;;2.38;1.83;;;;;;;6.83;52.78;99521.22;5035446;28;20029;-69
2021/03/21 00:31:33;;;;;;;2.45;1.75;;;;;;;6.90;52.08;99511.50;5035442;28;20040;-70
2021/03/21 00:33:59;;;;;;;5.13;1.75;;;;;;;6.84;52.52;99502.66;5035205;28;20025;-69
2021/03/21 00:36:25;;;;;;;1.60;1.50;;;;;;;6.82;52.99;99496.69;5036135;28;20114;-69
2021/03/21 00:38:52;;;;;;;2.25;1.33;;;;;;;6.95;52.22;99497.41;5035024;28;20127;-69
2021/03/21 00:41:22;;;;;;;1.60;1.50;;;;;;;6.97;52.99;99495.88;5035711;28;20529;-69
2021/03/21 00:43:47;;;;;;;1.55;1.45;;;;;;;7.02;51.80;99498.38;5035406;28;20467;-69
2021/03/21 00:46:13;;;;;;;1.70;1.60;;;;;;;6.94;52.43;99488.31;5034875;28;20018;-70
2021/03/21 00:48:42;;;;;;;2.15;1.40;;;;;;;6.97;53.80;99497.84;5036584;28;20029;-70
2021/03/21 00:51:09;;;;;;;2.38;2.17;;;;;;;7.07;52.19;99505.63;5035045;28;20022;-70
2021/03/21 00:53:36;;;;;;;2.03;1.73;;;;;;;7.02;51.96;99508.66;5035903;28;20056;-69
2021/03/21 00:56:01;;;;;;;2.22;2.03;;;;;;;6.99;52.00;99498.31;5036486;28;20029;-69
2021/03/21 00:58:27;;;;;;;2.20;2.05;;;;;;;7.03;52.71;99486.19;5035150;28;20479;-70
2021/03/21 01:00:58;;;;;;;2.53;2.33;;;;;;;6.89;51.93;99476.72;5035421;28;20026;-69
2021/03/21 01:03:24;;;;;;;3.97;2.40;;;;;;;6.74;52.21;99475.53;5018961;28;20033;-69
2021/03/21 01:05:59;;;;;;;2.10;1.95;;;;;;;6.64;52.21;99465.78;5035024;28;20033;-69
2021/03/21 01:08:28;;;;;;;1.95;1.85;;;;;;;6.66;53.07;99466.25;5034940;28;20025;-69
2021/03/21 01:11:04;;;;;;;1.90;1.77;;;;;;;6.67;52.91;99459.56;5034781;28;20029;-70
2021/03/21 01:13:34;;;;;;;2.17;1.90;;;;;;;6.71;53.30;99452.16;5034732;28;20388;-70
2021/03/21 01:16:01;;;;;;;2.00;1.83;;;;;;;6.74;53.01;99453.41;5034191;28;20109;-69
2021/03/21 01:18:31;;;;;;;3.15;2.22;;;;;;;6.72;52.77;99451.00;5034450;28;20551;-69
2021/03/21 01:20:59;;;;;;;1.73;1.63;;;;;;;6.87;52.60;99462.41;5034458;28;20034;-69
2021/03/21 01:23:25;;;;;;;1.70;1.60;;;;;;;6.85;52.51;99459.22;5034665;28;20029;-70
2021/03/21 01:25:52;;;;;;;1.70;1.60;;;;;;;6.82;52.45;99450.47;5034964;28;20368;-70
2021/03/21 01:28:28;;;;;;;2.40;2.05;;;;;;;6.97;51.32;99456.34;5033670;28;20386;-69
2021/03/21 01:30:56;;;;;;;2.58;1.58;;;;;;;7.09;51.27;99459.06;5034272;28;20087;-69
2021/03/21 01:33:23;;;;;;;3.08;1.70;;;;;;;7.02;51.98;99445.03;5034258;28;20030;-70
2021/03/21 01:35:49;;;;;;;1.85;1.73;;;;;;;6.94;52.15;99451.56;5034045;28;20479;-69
2021/03/21 01:38:16;;;;;;;1.50;1.40;;;;;;;6.94;52.61;99441.28;5034187;28;20504;-69
2021/03/21 01:40:42;;;;;;;2.65;1.88;;;;;;;6.92;51.98;99437.25;5034094;28;20025;-69
2021/03/21 01:43:13;;;;;;;1.88;1.77;;;;;;;6.91;52.47;99430.94;5034007;28;20041;-69
2021/03/21 01:45:47;;;;;;;3.65;1.80;;;;;;;6.96;51.87;99436.19;5034523;28;20542;-70
2021/03/21 01:48:33;;;;;;;1.90;1.80;;;;;;;6.93;52.06;99430.59;5034297;28;20029;-70
2021/03/21 01:51:05;;;;;;;1.70;1.60;;;;;;;7.06;51.63;99448.69;5026550;28;20048;-69
2021/03/21 01:53:35;;;;;;;2.25;1.70;;;;;;;6.97;51.31;99429.50;5033881;28;20033;-69
2021/03/21 01:56:02;;;;;;;2.80;1.63;;;;;;;6.94;51.75;99434.97;5034086;28;20556;-69
2021/03/21 01:58:29;;;;;;;2.38;2.15;;;;;;;6.91;51.03;99432.91;5035513;28;20112;-69
2021/03/21 02:01:01;;;;;;;2.40;2.10;;;;;;;6.95;51.54;99431.03;5034185;28;20052;-69
2021/03/21 02:03:28;;;;;;;2.13;2.03;;;;;;;6.99;51.42;99427.19;5034220;28;20043;-69
2021/03/21 02:06:11;;;;;;;2.47;2.03;;;;;;;7.05;51.60;99425.78;5033645;28;20037;-69
2021/03/21 02:08:47;;;;;;;2.03;1.92;;;;;;;7.05;50.58;99433.25;5033541;28;20061;-69
2021/03/21 02:11:45;;;;;;;3.55;1.77;;;;;;;6.82;51.23;99392.41;5034016;28;20025;-69
2021/03/21 02:14:26;;;;;;;1.70;1.60;;;;;;;6.97;50.63;99407.38;5028489;28;20037;-70
2021/03/21 02:17:11;;;;;;;1.52;1.42;;;;;;;6.94;49.80;99424.69;5033798;28;20041;-70
2021/03/21 02:20:02;;;;;;;2.17;2.03;;;;;;;6.95;49.88;99417.19;5033100;28;20091;-69
2021/03/21 02:22:33;;;;;;;2.03;1.70;;;;;;;6.97;50.42;99412.91;5032874;28;20451;-69
2021/03/21 02:25:56;;;;;;;1.85;1.75;;;;;;;6.99;49.62;99426.41;5033512;28;20037;-69
2021/03/21 02:29:00;;;;;;;1.70;1.60;;;;;;;6.99;49.87;99435.50;4996364;28;20269;-69
2021/03/21 02:31:34;;;;;;;2.78;1.80;;;;;;;6.93;50.71;99427.84;5034154;28;20504;-69
2021/03/21 02:34:32;;;;;;;;;;;;;;;7.00;51.31;99422.47;5033516;28;20022;-69
2021/03/21 02:37:15;;;;;;;2.17;1.95;;;;;;;7.01;51.65;99424.06;5021545;28;19975;-69
2021/03/21 02:39:50;;;;;;;2.35;2.15;;;;;;;6.95;51.97;99417.19;5033327;28;20491;-69
2021/03/21 02:42:24;;;;;;;3.25;1.80;;;;;;;6.98;51.53;99413.75;5033533;28;20060;-69
2021/03/21 02:44:57;;;;;;;2.50;1.95;;;;;;;6.79;52.66;99395.09;5016774;28;20064;-70
2021/03/21 02:47:29;;;;;;;2.03;1.92;;;;;;;6.75;53.54;99405.25;5032953;28;20032;-69
2021/03/21 02:50:00;;;;;;;2.03;1.83;;;;;;;6.82;52.79;99394.38;5032867;28;20067;-69
2021/03/21 02:52:32;;;;;;;3.33;2.15;;;;;;;6.76;53.89;99393.00;5034159;28;20028;-69
2021/03/21 02:55:18;;;;;;;2.10;1.73;;;;;;;6.79;52.75;99389.56;5032514;28;20037;-70
2021/03/21 02:58:02;;;;;;;1.95;1.85;;;;;;;6.97;51.58;99385.25;5032979;28;20448;-69
2021/03/21 03:00:35;;;;;;;1.85;1.70;;;;;;;6.93;51.92;99383.59;5033946;28;20036;-69
2021/03/21 03:03:07;;;;;;;2.83;2.13;;;;;;;6.88;51.68;99378.31;5032689;28;20029;-69
2021/03/21 03:05:40;;;;;;;1.77;1.67;;;;;;;6.54;52.67;99339.16;5034163;28;20034;-69
2021/03/21 03:08:13;;;;;;;1.58;1.48;;;;;;;6.81;53.42;99371.44;5033912;28;20048;-69
2021/03/21 03:10:49;;;;;;;1.77;1.67;;;;;;;6.70;51.95;99375.91;5032654;28;20033;-69
2021/03/21 03:13:24;;;;;;;2.33;2.13;;;;;;;6.84;51.71;99364.41;5032763;28;20032;-69
2021/03/21 03:15:54;;;;;;;2.40;2.10;;;;;;;6.88;51.55;99364.50;5033037;28;20061;-70
2021/03/21 03:18:45;;;;;;;2.55;2.30;;;;;;;6.94;51.51;99368.59;5032474;28;20235;-69
2021/03/21 03:21:32;;;;;;;3.03;2.60;;;;;;;6.86;52.54;99361.25;5023417;28;20037;-69
2021/03/21 03:24:06;;;;;;;5.30;4.07;;;;;;;6.90;53.08;99360.19;5034025;28;20466;-69
2021/03/21 03:26:56;;;;;;;2.67;2.47;;;;;;;6.74;51.38;99343.63;5033494;28;20032;-69
2021/03/21 03:29:30;;;;;;;5.70;5.20;;;;;;;6.74;52.41;99337.28;5032664;28;20116;-69
2021/03/21 03:32:00;;;;;;;6.50;5.90;;;;;;;6.70;52.87;99345.47;5033275;28;20065;-69
2021/03/21 03:34:27;;;;;;;7.72;6.40;;;;;;;6.75;52.81;99339.69;5032240;28;20025;-69
2021/03/21 03:36:53;;;;;;;7.05;4.32;;;;;;;6.75;52.30;99350.75;5033547;28;20079;-69
2021/03/21 03:39:20;;;;;;;3.00;2.75;;;;;;;6.75;53.01;99349.94;5032266;28;20033;-69
2021/03/21 03:41:51;;;;;;;2.20;1.67;;;;;;;6.84;51.59;99353.34;5033047;28;20034;-69
2021/03/21 03:44:20;;;;;;;2.00;1.90;;;;;;;6.75;52.22;99345.22;5032197;28;20030;-69
2021/03/21 03:46:59;;;;;;;3.33;3.03;;;;;;;6.79;51.92;99337.03;5032816;28;20064;-69
2021/03/21 03:49:41;;;;;;;2.30;2.10;;;;;;;6.91;51.34;99330.56;5032545;28;20041;-69
2021/03/21 03:52:31;;;;;;;2.10;1.85;;;;;;;6.82;52.23;99345.41;5036850;28;20030;-69
2021/03/21 03:55:12;;;;;;;1.95;1.77;;;;;;;6.78;52.49;99338.19;5035850;28;20061;-69
2021/03/21 03:58:01;;;;;;;2.67;2.30;;;;;;;6.63;53.76;99337.03;5036057;28;20113;-70
2021/03/21 04:00:36;;;;;;;3.50;1.92;;;;;;;6.60;52.75;99336.94;5036076;28;20037;-70
2021/03/21 04:03:24;;;;;;;2.50;2.30;;;;;;;6.60;53.74;99339.69;5036497;28;20124;-70
2021/03/21 04:05:56;;;;;;;2.85;2.45;;;;;;;6.78;51.11;99335.41;5036138;28;20061;-69
2021/03/21 04:08:46;;;;;;;2.03;1.88;;;;;;;6.74;51.41;99337.28;5036099;28;20124;-69
2021/03/21 04:11:46;;;;;;;2.22;2.00;;;;;;;6.75;50.98;99330.59;5036037;28;20526;-69
2021/03/21 04:14:18;;;;;;;2.58;2.20;;;;;;;6.79;51.42;99335.06;5037603;28;20035;-69
2021/03/21 04:16:54;;;;;;;2.25;2.05;;;;;;;6.75;51.74;99341.66;5036505;28;20375;-70
2021/03/21 04:19:24;;;;;;;2.50;2.30;;;;;;;6.77;51.96;99331.06;5035341;28;20056;-69
2021/03/21 04:21:58;;;;;;;3.80;2.08;;;;;;;6.74;51.68;99332.56;5037118;28;20032;-69
2021/03/21 04:24:23;;;;;;;2.92;2.08;;;;;;;6.76;52.05;99341.28;5035552;28;20528;-69
2021/03/21 04:26:56;;;;;;;2.10;1.90;;;;;;;6.78;51.44;99327.94;5035494;28;20116;-69
2021/03/21 04:29:32;;;;;;;2.47;2.28;;;;;;;6.73;51.50;99330.97;5036121;28;20064;-70
2021/03/21 04:32:01;;;;;;;2.28;2.08;;;;;;;6.72;52.88;99323.84;5036477;28;20032;-69
2021/03/21 04:34:29;;;;;;;3.35;2.72;;;;;;;6.72;52.90;99323.84;5036188;28;20033;-69
2021/03/21 04:36:58;;;;;;;2.97;2.78;;;;;;;6.75;52.65;99317.56;5035272;28;20040;-69
2021/03/21 04:39:32;;;;;;;2.70;2.50;;;;;;;6.74;53.10;99310.44;5036059;28;20087;-70
2021/03/21 04:42:04;;;;;;;2.80;2.40;;;;;;;6.76;53.27;99319.16;5036497;28;20033;-69
2021/03/21 04:45:16;;;;;;;2.65;2.45;;;;;;;6.67;53.24;99306.72;5037189;28;20100;-69
2021/03/21 04:48:13;;;;;;;3.47;2.70;;;;;;;6.70;53.71;99315.06;5032615;28;20128;-69
2021/03/21 04:50:41;;;;;;;2.42;2.22;;;;;;;6.67;53.95;99313.03;5035029;28;20048;-70
2021/03/21 04:53:35;;;;;;;2.83;2.47;;;;;;;6.61;54.47;99327.50;5035281;28;20056;-69
2021/03/21 04:56:07;;;;;;;2.65;2.45;;;;;;;6.61;54.17;99306.19;5034872;28;20488;-69
2021/03/21 04:58:47;;;;;;;2.70;2.50;;;;;;;6.64;54.17;99310.97;5035171;28;20033;-69
2021/03/21 05:01:27;;;;;;;2.17;2.03;;;;;;;6.64;54.57;99326.78;5036395;28;20111;-70
2021/03/21 05:04:09;;;;;;;3.40;3.10;;;;;;;6.65;54.96;99312.59;5034871;28;20056;-70
2021/03/21 05:06:50;;;;;;;2.80;2.53;;;;;;;6.57;55.30;99305.28;5034848;28;20057;-69
2021/03/21 05:09:23;;;;;;;3.05;2.72;;;;;;;6.52;55.73;99308.31;5034781;28;20124;-69
2021/03/21 05:11:59;;;;;;;3.30;3.00;;;;;;;6.67;55.60;99310.28;5036466;28;20025;-70
2021/03/21 05:14:25;;;;;;;2.95;2.65;;;;;;;6.65;55.01;99300.72;5036570;28;20117;-69
2021/03/21 05:17:03;;;;;;;3.20;2.47;;;;;;;6.74;54.90;99304.91;5034607;28;20452;-69
2021/03/21 05:20:06;;;;;;;3.10;2.80;;;;;;;6.73;55.08;99317.13;5034303;28;20053;-69
2021/03/21 05:22:46;;;;;;;2.70;2.50;;;;;;;6.75;54.99;99320.34;5035734;28;20061;-70
2021/03/21 05:25:30;;;;;;;2.85;2.65;;;;;;;6.70;54.61;99331.66;5034724;28;20037;-69
2021/03/21 05:28:09;;;;;;;3.63;3.30;;;;;;;6.66;54.76;99330.78;5035978;28;20052;-69
2021/03/21 05:30:36;;;;;;;3.15;2.95;;;;;;;6.66;54.78;99329.97;5034308;28;20037;-69
2021/03/21 05:33:04;;;;;;;3.13;2.85;;;;;;;6.67;54.86;99318.56;5034256;28;20033;-69
2021/03/21 05:35:35;;;;;;;3.30;3.00;;;;;;;6.65;56.02;99320.88;5033916;28;20025;-70
2021/03/21 05:38:23;;;;;;;3.53;3.22;;;;;;;6.73;54.67;99322.66;5034220;28;20031;-69
2021/03/21 05:41:29;;;;;;;2.92;2.63;;;;;;;6.85;54.37;99327.28;5034725;28;20029;-70
2021/03/21 05:44:12;;;;;;;3.03;2.60;;;;;;;6.88;53.46;99309.19;5035565;28;20032;-69
2021/03/21 05:46:46;;;;;;;3.05;2.72;;;;;;;7.03;53.57;99311.94;5034002;28;20087;-69
2021/03/21 05:49:53;;;;;;;3.80;3.40;;;;;;;6.98;53.23;99303.13;5033960;28;20037;-69
2021/03/21 05:52:48;;;;;;;4.53;3.40;;;;;;;7.05;52.81;99297.72;5023886;28;20109;-69
2021/03/21 05:56:08;;;;;;;5.15;3.50;;;;;;;7.10;52.74;99297.44;5024524;28;20069;-70
2021/03/21 05:58:43;;;;;;;3.03;2.72;;;;;;;6.93;52.92;99272.97;5012805;28;20037;-69
2021/03/21 06:01:20;;;;;;;3.33;3.03;;;;;;;7.05;53.03;99275.59;5031367;28;20045;-70
2021/03/21 06:04:23;;;;;;;4.45;2.63;;;;;;;7.21;52.31;99294.91;5034433;28;20480;-69
2021/03/21 06:07:10;;;;;;;4.00;2.78;;;;;;;7.26;52.17;99298.19;5034171;28;20033;-69
2021/03/21 06:09:53;;;;;;;3.63;3.08;;;;;;;7.31;52.16;99303.44;5034135;28;20056;-69
2021/03/21 06:12:25;;;;;;;6.38;3.30;;;;;;;7.42;51.71;99298.16;5033555;28;20063;-69
2021/03/21 06:14:59;;;;;;;6.07;3.30;;;;;;;7.48;52.01;99306.97;5032944;28;20033;-70
2021/03/21 06:17:46;;;;;;;4.65;2.80;;;;;;;7.54;50.89;99302.75;5035246;28;20040;-69
2021/03/21 06:20:12;;;;;;;2.75;2.47;;;;;;;7.58;51.38;99306.38;5033383;28;20140;-69
2021/03/21 06:23:05;;;;;;;4.45;3.13;;;;;;;7.68;50.61;99300.28;5033438;28;20068;-69
2021/03/21 06:26:02;;;;;;;2.60;2.40;;;;;;;7.51;51.34;99312.59;5033309;28;20092;-69
2021/03/21 06:28:39;;;;;;;4.47;3.35;;;;;;;7.67;51.45;99309.75;5033479;28;20114;-69
2021/03/21 06:31:08;;;;;;;4.00;3.60;;;;;;;7.77;49.77;99311.91;5033188;28;20037;-69
2021/03/21 06:34:11;;;;;;;3.63;3.33;;;;;;;8.04;49.40;99299.00;5033179;28;20472;-70
2021/03/21 06:36:44;;;;;;;3.83;3.53;;;;;;;8.21;49.10;99299.69;5033156;28;20025;-70
2021/03/21 06:39:53;;;;;;;3.00;2.80;;;;;;;8.08;49.08;99304.59;5034223;28;20357;-70
2021/03/21 06:42:32;;;;;;;4.32;3.92;;;;;;;7.97;49.95;99300.81;5034270;28;20028;-70
2021/03/21 06:45:16;;;;;;;4.57;3.28;;;;;;;8.07;49.91;99294.69;5033710;28;20033;-70
2021/03/21 06:47:52;;;;;;;2.95;2.75;;;;;;;8.16;49.46;99298.03;5033645;28;20428;-70
2021/03/21 06:50:31;;;;;;;2.88;2.67;;;;;;;7.83;50.19;99282.78;5032914;28;20049;-69
2021/03/21 06:52:59;;;;;;;3.65;3.35;;;;;;;7.99;49.74;99291.00;5032840;28;20025;-70
2021/03/21 06:55:41;;;;;;;3.28;2.97;;;;;;;8.47;48.38;99285.09;5032778;28;20030;-70
2021/03/21 06:58:32;;;;;;;3.28;2.97;;;;;;;8.61;48.55;99302.00;5032796;28;20055;-70
2021/03/21 07:01:27;;;;;;;3.90;3.60;;;;;;;8.76;48.14;99289.97;5033308;28;20388;-69
2021/03/21 07:04:44;;;;;;;3.30;3.00;;;;;;;8.60;49.12;99297.63;5028115;28;20403;-69
2021/03/21 07:07:34;;;;;;;4.00;3.60;;;;;;;9.44;46.58;99291.72;5021550;28;20411;-69
2021/03/21 07:10:26;;;;;;;3.55;3.25;;;;;;;9.42;46.44;99293.28;5032537;28;20029;-70
2021/03/21 07:13:29;;;;;;;4.38;3.97;;;;;;;9.58;46.07;99290.31;5032528;28;20055;-70
2021/03/21 07:16:29;;;;;;;3.95;3.30;;;;;;;9.36;45.86;99297.56;5032099;28;20025;-69
2021/03/21 07:19:12;;;;;;;5.88;3.50;;;;;;;9.52;45.92;99291.81;5032127;28;20050;-69
2021/03/21 07:22:17;;;;;;;3.38;3.08;;;;;;;9.57;44.74;99306.16;5032628;28;20029;-69
2021/03/21 07:24:52;;;;;;;3.42;3.13;;;;;;;10.04;43.51;99295.59;5033301;28;20065;-69
2021/03/21 07:27:48;;;;;;;4.40;2.58;;;;;;;9.87;43.17;99303.38;5036182;28;20476;-69
2021/03/21 07:30:55;;;;;;;4.68;3.13;;;;;;;9.71;43.78;99305.56;5038410;28;20032;-69
2021/03/21 07:33:51;;;;;;;4.93;3.45;;;;;;;10.40;42.94;99311.50;5035978;28;20041;-69
2021/03/21 07:36:33;;;;;;;4.50;4.10;;;;;;;10.77;42.89;99321.75;5036420;28;20030;-69
2021/03/21 07:39:13;;;;;;;3.60;3.30;;;;;;;11.46;41.05;99313.47;5036442;28;20033;-66
2021/03/21 07:42:03;;;;;;;5.07;4.22;;;;;;;11.77;40.60;99317.63;5036451;28;20029;-69
2021/03/21 07:44:56;;;;;;;6.60;4.32;;;;;;;10.95;40.89;99324.69;5037584;28;20084;-69
2021/03/21 07:47:54;;;;;;;5.18;3.88;;;;;;;10.71;41.43;99301.84;5036225;28;20025;-69
2021/03/21 07:50:44;;;;;;;15.23;10.80;;;;;;;10.46;42.20;99337.78;5024553;28;20029;-69
2021/03/21 07:53:12;;;;;;;6.53;3.92;;;;;;;10.58;42.08;99316.41;5037092;28;20129;-69
2021/03/21 07:55:56;;;;;;;3.35;3.05;;;;;;;10.06;42.17;99326.59;5036094;28;20022;-70
2021/03/21 07:58:38;;;;;;;5.25;3.28;;;;;;;10.34;41.97;99338.06;5036628;28;20472;-69
2021/03/21 08:01:04;;;;;;;3.53;3.22;;;;;;;10.72;41.71;99342.38;5037052;28;20026;-69
2021/03/21 08:03:37;;;;;;;9.00;5.90;;;;;;;10.23;42.10;99340.72;5036057;28;20041;-69
2021/03/21 08:06:12;;;;;;;4.00;3.40;;;;;;;10.20;41.37;99343.44;5037298;28;20029;-70
2021/03/21 08:08:42;;;;;;;3.05;2.78;;;;;;;10.43;41.29;99318.25;5035899;28;20029;-70
2021/03/21 08:11:07;;;;;;;3.60;3.22;;;;;;;10.44;41.16;99329.03;5037074;28;20033;-69
2021/03/21 08:13:48;;;;;;;8.40;4.63;;;;;;;9.79;42.28;99335.00;5035693;28;20120;-69
2021/03/21 08:16:24;;;;;;;4.75;3.13;;;;;;;9.66;43.18;99336.44;5037165;28;20037;-69
2021/03/21 08:18:50;;;;;;;3.60;3.30;;;;;;;9.50;43.20;99325.53;5035696;28;20057;-69
2021/03/21 08:21:23;;;;;;;5.00;3.22;;;;;;;9.65;42.32;99323.75;5019290;28;20526;-68
2021/03/21 08:23:50;;;;;;;;;;;;;;;9.86;42.61;99329.56;5036807;28;20048;-69
2021/03/21 08:26:25;;;;;;;4.10;3.47;;;;;;;9.63;41.98;99292.75;5037153;28;20351;-69
2021/03/21 08:29:01;;;;;;;3.67;2.72;;;;;;;9.65;41.87;99318.19;5035544;28;20484;-69
2021/03/21 08:31:39;;;;;;;5.22;4.00;;;;;;;10.60;41.14;99325.16;5035395;28;20115;-69
2021/03/21 08:34:39;;;;;;;4.75;3.97;;;;;;;10.45;40.15;99325.06;5035332;28;20032;-69
2021/03/21 08:37:33;;;;;;;6.20;5.60;;;;;;;11.18;38.49;99304.94;5035230;28;20436;-69
2021/03/21 08:40:18;;;;;;;5.60;3.72;;;;;;;10.80;39.92;99318.19;5027583;28;20148;-72
2021/03/21 08:42:46;;;;;;;5.03;4.10;;;;;;;10.97;39.77;99302.81;5032382;28;20040;-69
2021/03/21 08:45:23;;;;;;;4.00;3.33;;;;;;;10.85;38.75;99295.56;5035201;28;20026;-69
2021/03/21 08:48:05;;;;;;;4.03;3.65;;;;;;;10.97;39.80;99308.38;5035662;28;20025;-69
2021/03/21 08:50:40;;;;;;;4.03;3.58;;;;;;;10.49;40.20;99314.78;5035933;28;20029;-69
2021/03/21 08:53:32;;;;;;;6.15;3.97;;;;;;;10.84;39.88;99307.91;5035322;28;20372;-69
2021/03/21 08:56:21;;;;;;;4.13;3.67;;;;;;;10.94;39.69;99304.41;5035526;28;20060;-69
2021/03/21 08:59:09;;;;;;;4.68;4.07;;;;;;;11.09;39.93;99322.00;5035008;28;20037;-70
2021/03/21 09:01:38;;;;;;;4.50;4.10;;;;;;;10.95;39.53;99311.56;5036554;28;20376;-69
2021/03/21 09:04:14;;;;;;;6.80;6.00;;;;;;;11.22;40.08;99308.56;5035079;28;20353;-69
2021/03/21 09:06:43;;;;;;;9.45;6.38;;;;;;;11.06;38.63;99308.06;5035611;28;20460;-69
2021/03/21 09:09:38;;;;;;;9.82;7.13;;;;;;;11.16;39.08;99297.00;5036135;28;20064;-69
2021/03/21 09:12:25;;;;;;;4.72;4.15;;;;;;;11.06;39.55;99327.53;5019885;28;20029;-69
2021/03/21 09:15:11;;;;;;;5.75;3.67;;;;;;;10.49;39.81;99328.69;5035293;28;20026;-69
2021/03/21 09:17:37;;;;;;;5.00;3.35;;;;;;;11.36;39.15;99283.59;5034671;28;20083;-69
2021/03/21 09:20:06;;;;;;;4.22;3.75;;;;;;;12.20;37.41;99294.69;5034137;28;20061;-68
2021/03/21 09:22:37;;;;;;;4.15;3.85;;;;;;;11.91;38.09;99294.59;5034526;28;20033;-69
2021/03/21 09:25:30;;;;;;;4.50;4.10;;;;;;;11.98;37.48;99294.59;5034711;28;20040;-69
2021/03/21 09:27:58;;;;;;;3.55;3.25;;;;;;;12.22;36.87;99286.72;5036508;28;20087;-70
2021/03/21 09:30:30;;;;;;;3.95;3.45;;;;;;;12.65;37.01;99275.59;5034628;28;20124;-70
2021/03/21 09:33:03;;;;;;;7.07;4.45;;;;;;;11.89;37.33;99288.63;5035093;28;20539;-70
2021/03/21 09:35:47;;;;;;;;;;;;;;;12.48;37.43;99291.91;5034567;28;20029;-68
2021/03/21 09:38:33;;;;;;;5.28;3.05;;;;;;;12.01;37.17;99285.47;5035468;28;20047;-68
2021/03/21 09:41:09;;;;;;;8.00;4.97;;;;;;;11.85;37.68;99276.66;5035692;28;20022;-68
2021/03/21 09:43:38;;;;;;;4.28;3.75;;;;;;;11.63;38.06;99283.31;5036181;28;20037;-70
2021/03/21 09:46:38;;;;;;;4.72;4.22;;;;;;;11.44;38.25;99268.50;5035135;28;20057;-70
2021/03/21 09:49:14;;;;;;;4.55;3.83;;;;;;;11.63;38.32;99283.31;5034329;28;20040;-70
2021/03/21 09:51:59;;;;;;;3.78;3.45;;;;;;;11.18;38.92;99274.31;5034027;28;20555;-70
2021/03/21 09:54:52;;;;;;;6.93;5.78;;;;;;;10.76;39.01;99208.88;5035336;28;20022;-70
2021/03/21 09:57:42;;;;;;;4.60;4.10;;;;;;;10.74;39.11;99261.31;5033822;28;20033;-68
2021/03/21 10:00:11;;;;;;;10.73;9.38;;;;;;;11.05;38.51;99270.28;5033727;28;20037;-69
2021/03/21 10:02:39;;;;;;;5.13;4.65;;;;;;;11.07;37.62;99226.13;5033705;28;20034;-69
2021/03/21 10:05:44;;;;;;;4.60;4.20;;;;;;;11.81;36.74;99267.44;5034558;28;20044;-69
2021/03/21 10:08:43;;;;;;;5.28;4.72;;;;;;;12.01;36.14;99265.94;5018755;28;20041;-69
2021/03/21 10:11:13;;;;;;;7.57;3.72;;;;;;;12.44;34.98;99246.47;5033611;28;20112;-70
2021/03/21 10:13:42;;;;;;;4.07;3.67;;;;;;;11.83;36.01;99259.53;5033535;28;20076;-69
2021/03/21 10:16:13;;;;;;;6.45;5.85;;;;;;;11.38;36.20;99250.56;5033416;28;20122;-69
2021/03/21 10:18:48;;;;;;;4.22;3.83;;;;;;;11.10;36.80;99233.72;5033200;28;20052;-68
2021/03/21 10:21:23;;;;;;;5.78;3.85;;;;;;;11.17;37.29;99244.88;5033162;28;20021;-69
2021/03/21 10:23:51;;;;;;;5.60;4.70;;;;;;;11.48;36.33;99238.66;5033830;28;20033;-69
2021/03/21 10:26:22;;;;;;;3.63;3.33;;;;;;;11.43;35.89;99230.69;5033269;28;20480;-69
2021/03/21 10:28:56;;;;;;;4.03;3.50;;;;;;;11.87;35.12;99243.59;5033220;28;20029;-69
2021/03/21 10:31:21;;;;;;;;;;;;;;;12.18;34.59;99230.13;5033895;28;20486;-69
2021/03/21 10:33:51;;;;;;;5.45;4.10;;;;;;;11.73;35.56;99222.03;5033726;28;20008;-69
2021/03/21 10:36:43;;;;;;;5.35;4.07;;;;;;;11.67;37.11;99233.97;5033273;28;20365;-69
2021/03/21 10:39:25;;;;;;;3.80;3.28;;;;;;;11.51;36.44;99232.31;5029543;28;20037;-69
2021/03/21 10:42:04;;;;;;;5.15;4.13;;;;;;;11.39;37.12;99238.22;5032751;28;20084;-69
2021/03/21 10:44:33;;;;;;;4.03;3.58;;;;;;;11.53;36.94;99246.66;5032969;28;20116;-68
2021/03/21 10:47:00;;;;;;;4.30;3.63;;;;;;;11.61;37.02;99230.78;5032994;28;20543;-69
2021/03/21 10:49:46;;;;;;;3.60;3.30;;;;;;;12.13;36.26;99222.16;5032971;28;20033;-69
2021/03/21 10:52:37;;;;;;;4.38;3.97;;;;;;;11.74;36.45;99232.00;5033146;28;20061;-69
2021/03/21 10:55:12;;;;;;;4.25;3.85;;;;;;;11.21;38.02;99238.16;5032740;28;20029;-69
2021/03/21 10:57:48;;;;;;;5.28;4.78;;;;;;;11.01;37.49;99232.06;5033579;28;20041;-69
2021/03/21 11:00:31;;;;;;;5.78;5.05;;;;;;;11.07;38.22;99226.94;5032904;28;20122;-69
2021/03/21 11:03:00;;;;;;;8.77;7.88;;;;;;;11.54;37.92;99231.53;5033782;28;20025;-69
2021/03/21 11:05:31;;;;;;;4.57;4.07;;;;;;;10.89;38.97;99229.63;5032658;28;20029;-69
2021/03/21 11:08:12;;;;;;;4.88;4.43;;;;;;;11.27;38.66;99228.22;5032622;28;20061;-69
2021/03/21 11:10:46;;;;;;;4.18;3.78;;;;;;;11.19;38.32;99221.03;5032879;28;20534;-69
2021/03/21 11:13:15;;;;;;;;;;;;;;;11.01;38.31;99220.94;5034852;28;20061;-69
2021/03/21 11:15:46;;;;;;;5.03;4.53;;;;;;;11.15;38.65;99223.00;5032499;28;20015;-69
2021/03/21 11:18:26;;;;;;;7.78;6.70;;;;;;;11.01;38.20;99229.28;5032687;28;20385;-69
2021/03/21 11:21:24;;;;;;;5.13;4.63;;;;;;;11.97;37.32;99217.75;5033048;28;20052;-69
2021/03/21 11:23:55;;;;;;;3.75;3.45;;;;;;;11.86;36.22;99211.34;5010556;28;20040;-69
2021/03/21 11:26:27;;;;;;;4.00;3.65;;;;;;;11.17;37.80;99211.47;5033065;28;20081;-69
2021/03/21 11:29:19;;;;;;;4.15;3.55;;;;;;;11.49;37.25;99212.41;5032994;28;20116;-69
2021/03/21 11:32:04;;;;;;;4.10;3.80;;;;;;;11.62;36.54;99198.13;5029061;28;20038;-69
2021/03/21 11:34:33;;;;;;;4.25;3.80;;;;;;;11.29;37.17;99202.78;5034107;28;20037;-69
2021/03/21 11:37:12;;;;;;;3.95;3.65;;;;;;;11.88;37.10;99203.41;5034262;28;20087;-69
2021/03/21 11:40:02;;;;;;;5.22;4.20;;;;;;;12.05;36.51;99199.84;5032623;28;20036;-69
2021/03/21 11:42:37;;;;;;;5.55;5.07;;;;;;;12.32;36.41;99186.31;5032909;28;20037;-69
2021/03/21 11:45:12;;;;;;;5.03;4.28;;;;;;;12.25;36.04;99185.50;5032327;28;20021;-69
2021/03/21 11:47:39;;;;;;;5.70;3.90;;;;;;;11.48;36.53;99191.31;5032347;28;20025;-69
2021/03/21 11:50:14;;;;;;;5.85;5.30;;;;;;;11.85;36.49;99178.31;5032223;28;20025;-69
2021/03/21 11:52:42;;;;;;;4.28;3.88;;;;;;;12.01;36.50;99157.22;5033483;28;20040;-69
2021/03/21 11:55:13;;;;;;;5.40;4.90;;;;;;;12.00;35.50;99152.84;5031822;28;20113;-69
2021/03/21 11:58:13;;;;;;;6.78;6.18;;;;;;;12.77;35.26;99142.00;5032403;28;20143;-69
2021/03/21 12:00:42;;;;;;;6.72;4.20;;;;;;;12.39;34.27;99157.59;5032471;28;20049;-69
2021/03/21 12:03:20;;;;;;;4.25;3.85;;;;;;;12.04;35.22;99161.22;5031987;28;20067;-69
2021/03/21 12:06:03;;;;;;;5.53;4.20;;;;;;;11.85;36.36;99140.09;5032090;28;20120;-69
2021/03/21 12:08:38;;;;;;;5.63;5.07;;;;;;;12.27;36.07;99149.66;5032582;28;20079;-69
2021/03/21 12:11:19;;;;;;;4.60;4.20;;;;;;;12.77;35.15;99144.00;5033795;28;20022;-69
2021/03/21 12:13:45;;;;;;;5.38;3.83;;;;;;;12.42;34.58;99137.28;5035546;28;20037;-69
2021/03/21 12:16:38;;;;;;;7.50;6.78;;;;;;;12.09;35.66;99129.34;5035648;28;20022;-70
2021/03/21 12:19:28;;;;;;;5.47;5.07;;;;;;;12.03;36.65;99135.31;5035475;28;20051;-67
2021/03/21 12:22:07;;;;;;;6.68;6.00;;;;;;;11.88;36.98;99119.78;5035616;28;20025;-67
2021/03/21 12:24:34;;;;;;;6.03;5.13;;;;;;;12.21;37.07;99123.38;5036549;28;20026;-67
2021/03/21 12:26:59;;;;;;;5.70;5.20;;;;;;;11.96;36.61;99121.38;5036905;28;20033;-69
2021/03/21 12:29:25;;;;;;;6.68;6.13;;;;;;;11.96;36.82;99110.22;5037129;28;20083;-69
2021/03/21 12:32:16;;;;;;;5.75;4.50;;;;;;;12.01;37.12;99103.47;5035965;28;20052;-69